Strona główna
METAR-TAF:

METAR-TAF

Lotnisko :

Port lotniczy Recife

Recife, Pernambuco, Brazylia

Szerokość geograficzna: 08-08S, Długość geograficzna: 034-55W, wysokość: 19 m

Aktualna obserwacja pogody

Raport powstał 58 minut temu, godzina 15:00 UTC
Wiatr 10 kt od wschód
Temperatura 31°C
Wilgotność 71%
Ciśnienie 1012 hPa
Widzialność 10 km lub więcej
Rozproszone chmury na wysokości 2000 ft

METAR: SBRF 261500Z 10010KT 9999 SCT020 31/25 Q1012

czas: 12:58 (15:58 UTC)

Prognoza

Raport powstał 5 godziny i 58 minut temu, godzina 10:00 UTC
Prognoza ważna od 26 godzina 12 UTC do 27 godzina 12 UTC
Wiatr 8 kt od wschodnio-południowy wschód
Widzialność 10 km lub więcej
Rozproszone chmury na wysokości 2300 ft
Stopniowe zmiany
od 26 godzina 16 UTC do 26 godzina 18 UTC
Wiatr 8 kt od wschód
Stopniowe zmiany
od 26 godzina 22 UTC do 26 godzina 24 UTC
Wiatr 8 kt od wschodnio-południowy wschód

TAF: SBRF 261000Z 2612/2712 12008KT 9999 SCT023 TX30/2614Z TN26/2706Z BECMG 2616/2618 09008KT BECMG 2622/2624 12008KT RMK PEH

Obserwacja i prognoza pogody dla ponad 4000 lotnisk (raport METAR i TAF).

Dostępne stacje oznaczono żółtymi i czerwonymi punktami na mapie.

Najedź kursorem aby zobaczyć nazwę stacji.

Kliknij aby zobaczyć obserwacje i prognozy pogody.

Aby zmienić mapę: kliknij na zielony przycisk z czarnym krzyżykiem, aby powiększyć; na zielony przycisk z myślnikiem, aby pomniejszyć; na zielone strzałki, aby przejść do map sąsiednich.


METAR-TAF: